sensor_id;sensor_type;location;lat;lon;timestamp;pressure;altitude;pressure_sealevel;temperature;humidity
3812;BME280;1921;49.368;11.068;2024-02-28T00:01:22;97616.31;;;5.97;91.98
3812;BME280;1921;49.368;11.068;2024-02-28T00:03:47;97593.09;;;5.59;93.02
3812;BME280;1921;49.368;11.068;2024-02-28T00:06:16;97484.00;;;5.10;91.96
3812;BME280;1921;49.368;11.068;2024-02-28T00:08:42;97576.75;;;5.59;92.72
3812;BME280;1921;49.368;11.068;2024-02-28T00:11:08;97607.53;;;5.80;92.68
3812;BME280;1921;49.368;11.068;2024-02-28T00:13:34;97629.69;;;6.10;91.99
3812;BME280;1921;49.368;11.068;2024-02-28T00:15:59;97554.94;;;5.44;92.94
3812;BME280;1921;49.368;11.068;2024-02-28T00:18:25;97566.72;;;5.56;91.62
3812;BME280;1921;49.368;11.068;2024-02-28T00:20:51;97634.13;;;5.90;92.75
3812;BME280;1921;49.368;11.068;2024-02-28T00:23:16;97543.34;;;5.30;92.78
3812;BME280;1921;49.368;11.068;2024-02-28T00:25:42;97594.81;;;5.68;92.93
3812;BME280;1921;49.368;11.068;2024-02-28T00:28:08;97602.03;;;5.47;93.82
3812;BME280;1921;49.368;11.068;2024-02-28T00:30:33;97567.59;;;5.19;95.70
3812;BME280;1921;49.368;11.068;2024-02-28T00:33:00;97615.72;;;5.75;93.74
3812;BME280;1921;49.368;11.068;2024-02-28T00:35:25;97620.84;;;5.85;93.45
3812;BME280;1921;49.368;11.068;2024-02-28T00:37:51;97621.44;;;5.79;93.82
3812;BME280;1921;49.368;11.068;2024-02-28T00:40:17;97623.78;;;5.90;92.89
3812;BME280;1921;49.368;11.068;2024-02-28T00:42:42;97618.91;;;5.87;92.45
3812;BME280;1921;49.368;11.068;2024-02-28T00:45:09;97571.81;;;5.48;93.98
3812;BME280;1921;49.368;11.068;2024-02-28T00:47:35;97568.03;;;5.42;93.63
3812;BME280;1921;49.368;11.068;2024-02-28T00:50:01;97603.59;;;5.76;93.35
3812;BME280;1921;49.368;11.068;2024-02-28T00:52:29;97556.78;;;5.51;92.99
3812;BME280;1921;49.368;11.068;2024-02-28T00:54:56;97585.13;;;5.88;91.37
3812;BME280;1921;49.368;11.068;2024-02-28T00:57:22;97579.00;;;5.72;92.01
3812;BME280;1921;49.368;11.068;2024-02-28T00:59:47;97602.75;;;5.85;93.03
3812;BME280;1921;49.368;11.068;2024-02-28T01:02:13;97616.88;;;5.90;92.67
3812;BME280;1921;49.368;11.068;2024-02-28T01:04:41;97611.66;;;5.73;94.36
3812;BME280;1921;49.368;11.068;2024-02-28T01:07:07;97565.53;;;5.50;93.47
3812;BME280;1921;49.368;11.068;2024-02-28T01:09:32;97615.69;;;5.85;92.85
3812;BME280;1921;49.368;11.068;2024-02-28T01:11:58;97590.28;;;5.53;93.65
3812;BME280;1921;49.368;11.068;2024-02-28T01:14:24;97607.09;;;5.11;96.71
3812;BME280;1921;49.368;11.068;2024-02-28T01:16:50;97587.66;;;4.80;97.63
3812;BME280;1921;49.368;11.068;2024-02-28T01:19:16;97608.56;;;4.86;99.27
3812;BME280;1921;49.368;11.068;2024-02-28T01:21:42;97576.69;;;4.58;100.00
3812;BME280;1921;49.368;11.068;2024-02-28T01:24:07;97619.28;;;4.92;99.04
3812;BME280;1921;49.368;11.068;2024-02-28T01:26:33;97599.44;;;4.92;98.48
3812;BME280;1921;49.368;11.068;2024-02-28T01:28:59;97614.50;;;4.97;98.66
3812;BME280;1921;49.368;11.068;2024-02-28T01:31:25;97598.16;;;4.69;99.76
3812;BME280;1921;49.368;11.068;2024-02-28T01:33:50;97514.59;;;4.03;100.00
3812;BME280;1921;49.368;11.068;2024-02-28T01:36:16;97608.06;;;4.73;100.00
3812;BME280;1921;49.368;11.068;2024-02-28T01:38:42;97624.56;;;5.00;99.87
3812;BME280;1921;49.368;11.068;2024-02-28T01:41:07;97639.31;;;4.80;100.00
3812;BME280;1921;49.368;11.068;2024-02-28T01:43:33;97502.81;;;3.91;100.00
3812;BME280;1921;49.368;11.068;2024-02-28T01:46:02;97609.63;;;4.37;100.00
3812;BME280;1921;49.368;11.068;2024-02-28T01:48:29;97607.72;;;4.39;100.00
3812;BME280;1921;49.368;11.068;2024-02-28T01:50:55;97622.63;;;4.65;100.00
3812;BME280;1921;49.368;11.068;2024-02-28T01:53:21;97631.97;;;4.75;100.00
3812;BME280;1921;49.368;11.068;2024-02-28T01:55:47;97649.25;;;4.84;100.00
3812;BME280;1921;49.368;11.068;2024-02-28T01:58:13;97608.88;;;4.64;100.00
3812;BME280;1921;49.368;11.068;2024-02-28T02:00:40;97603.47;;;4.57;100.00
3812;BME280;1921;49.368;11.068;2024-02-28T02:03:06;97620.34;;;4.52;100.00
3812;BME280;1921;49.368;11.068;2024-02-28T02:05:31;97597.16;;;4.23;100.00
3812;BME280;1921;49.368;11.068;2024-02-28T02:07:58;97620.38;;;4.42;100.00
3812;BME280;1921;49.368;11.068;2024-02-28T02:10:25;97600.69;;;4.12;100.00
3812;BME280;1921;49.368;11.068;2024-02-28T02:12:51;97608.84;;;4.08;100.00
3812;BME280;1921;49.368;11.068;2024-02-28T02:15:18;97620.06;;;4.45;100.00
3812;BME280;1921;49.368;11.068;2024-02-28T02:17:44;97668.50;;;5.00;100.00
3812;BME280;1921;49.368;11.068;2024-02-28T02:20:14;97628.59;;;4.75;100.00
3812;BME280;1921;49.368;11.068;2024-02-28T02:22:40;97684.03;;;5.27;98.59
3812;BME280;1921;49.368;11.068;2024-02-28T02:25:06;97604.94;;;5.07;97.68
3812;BME280;1921;49.368;11.068;2024-02-28T02:27:32;97619.41;;;5.00;97.21
3812;BME280;1921;49.368;11.068;2024-02-28T02:30:00;97689.84;;;5.02;99.37
3812;BME280;1921;49.368;11.068;2024-02-28T02:32:26;97638.00;;;4.56;100.00
3812;BME280;1921;49.368;11.068;2024-02-28T02:34:51;97662.16;;;4.75;99.78
3812;BME280;1921;49.368;11.068;2024-02-28T02:37:17;97670.81;;;4.93;99.17
3812;BME280;1921;49.368;11.068;2024-02-28T02:39:43;97672.94;;;5.07;97.82
3812;BME280;1921;49.368;11.068;2024-02-28T02:42:09;97709.56;;;5.40;96.36
3812;BME280;1921;49.368;11.068;2024-02-28T02:44:34;97721.94;;;5.46;97.20
3812;BME280;1921;49.368;11.068;2024-02-28T02:47:00;97729.66;;;5.56;96.23
3812;BME280;1921;49.368;11.068;2024-02-28T02:49:26;97712.16;;;5.40;96.76
3812;BME280;1921;49.368;11.068;2024-02-28T02:51:51;97685.94;;;5.35;95.98
3812;BME280;1921;49.368;11.068;2024-02-28T02:54:17;97690.91;;;5.46;95.34
3812;BME280;1921;49.368;11.068;2024-02-28T02:56:43;97677.13;;;5.18;96.46
3812;BME280;1921;49.368;11.068;2024-02-28T02:59:10;97694.34;;;5.37;96.67
3812;BME280;1921;49.368;11.068;2024-02-28T03:01:37;97640.84;;;5.10;94.53
3812;BME280;1921;49.368;11.068;2024-02-28T03:04:03;97685.88;;;5.45;95.00
3812;BME280;1921;49.368;11.068;2024-02-28T03:06:28;97740.63;;;6.05;93.95
3812;BME280;1921;49.368;11.068;2024-02-28T03:08:54;97699.56;;;5.82;93.15
3812;BME280;1921;49.368;11.068;2024-02-28T03:11:20;97728.56;;;6.13;92.12
3812;BME280;1921;49.368;11.068;2024-02-28T03:13:45;97718.16;;;6.23;91.87
3812;BME280;1921;49.368;11.068;2024-02-28T03:16:11;97730.59;;;6.37;90.53
3812;BME280;1921;49.368;11.068;2024-02-28T03:18:37;97698.31;;;6.32;90.23
3812;BME280;1921;49.368;11.068;2024-02-28T03:21:03;97712.41;;;6.47;89.70
3812;BME280;1921;49.368;11.068;2024-02-28T03:23:29;97758.72;;;6.86;88.95
3812;BME280;1921;49.368;11.068;2024-02-28T03:25:55;97713.31;;;6.64;88.66
3812;BME280;1921;49.368;11.068;2024-02-28T03:28:20;97721.63;;;6.67;87.71
3812;BME280;1921;49.368;11.068;2024-02-28T03:30:46;97777.59;;;6.96;87.36
3812;BME280;1921;49.368;11.068;2024-02-28T03:33:12;97731.63;;;6.62;87.28
3812;BME280;1921;49.368;11.068;2024-02-28T03:35:37;97748.13;;;6.79;87.91
3812;BME280;1921;49.368;11.068;2024-02-28T03:38:03;97792.75;;;7.09;86.49
3812;BME280;1921;49.368;11.068;2024-02-28T03:40:29;97791.47;;;7.13;85.79
3812;BME280;1921;49.368;11.068;2024-02-28T03:42:55;97734.84;;;6.82;86.50
3812;BME280;1921;49.368;11.068;2024-02-28T03:45:20;97729.53;;;6.84;85.95
3812;BME280;1921;49.368;11.068;2024-02-28T03:47:46;97786.38;;;7.21;85.79
3812;BME280;1921;49.368;11.068;2024-02-28T03:50:12;97783.09;;;7.19;84.31
3812;BME280;1921;49.368;11.068;2024-02-28T03:52:38;97779.91;;;7.07;84.83
3812;BME280;1921;49.368;11.068;2024-02-28T03:55:04;97705.28;;;6.49;84.85
3812;BME280;1921;49.368;11.068;2024-02-28T03:57:30;97766.53;;;6.94;85.13
3812;BME280;1921;49.368;11.068;2024-02-28T03:59:55;97758.25;;;6.90;85.59
3812;BME280;1921;49.368;11.068;2024-02-28T04:02:21;97764.47;;;6.97;85.01
3812;BME280;1921;49.368;11.068;2024-02-28T04:04:47;97747.31;;;6.79;84.22
3812;BME280;1921;49.368;11.068;2024-02-28T04:07:12;97767.81;;;6.90;84.75
3812;BME280;1921;49.368;11.068;2024-02-28T04:09:38;97787.00;;;6.97;85.70
3812;BME280;1921;49.368;11.068;2024-02-28T04:12:04;97802.97;;;7.10;84.94
3812;BME280;1921;49.368;11.068;2024-02-28T04:14:30;97808.16;;;7.10;83.80
3812;BME280;1921;49.368;11.068;2024-02-28T04:16:55;97774.91;;;6.88;84.52
3812;BME280;1921;49.368;11.068;2024-02-28T04:19:21;97759.09;;;6.73;85.04
3812;BME280;1921;49.368;11.068;2024-02-28T04:21:47;97792.84;;;6.99;85.21
3812;BME280;1921;49.368;11.068;2024-02-28T04:24:13;97780.25;;;6.86;85.23
3812;BME280;1921;49.368;11.068;2024-02-28T04:26:39;97788.41;;;6.73;84.49
3812;BME280;1921;49.368;11.068;2024-02-28T04:29:05;97797.06;;;6.82;83.87
3812;BME280;1921;49.368;11.068;2024-02-28T04:31:33;97776.47;;;6.81;84.57
3812;BME280;1921;49.368;11.068;2024-02-28T04:33:59;97795.47;;;7.07;82.50
3812;BME280;1921;49.368;11.068;2024-02-28T04:36:25;97811.25;;;7.14;83.49
3812;BME280;1921;49.368;11.068;2024-02-28T04:38:50;97782.31;;;6.83;84.46
3812;BME280;1921;49.368;11.068;2024-02-28T04:41:16;97756.34;;;6.57;84.88
3812;BME280;1921;49.368;11.068;2024-02-28T04:43:42;97797.44;;;6.87;84.70
3812;BME280;1921;49.368;11.068;2024-02-28T04:46:07;97775.44;;;6.73;85.46
3812;BME280;1921;49.368;11.068;2024-02-28T04:48:33;97771.41;;;6.71;85.63
3812;BME280;1921;49.368;11.068;2024-02-28T04:51:00;97766.44;;;6.60;85.45
3812;BME280;1921;49.368;11.068;2024-02-28T04:53:26;97799.38;;;6.85;84.39
3812;BME280;1921;49.368;11.068;2024-02-28T04:55:51;97772.78;;;6.65;84.76
3812;BME280;1921;49.368;11.068;2024-02-28T04:58:17;97778.09;;;6.64;85.26
3812;BME280;1921;49.368;11.068;2024-02-28T05:00:43;97735.38;;;6.14;85.37
3812;BME280;1921;49.368;11.068;2024-02-28T05:03:08;97802.16;;;6.56;85.51
3812;BME280;1921;49.368;11.068;2024-02-28T05:05:34;97812.69;;;6.55;86.01
3812;BME280;1921;49.368;11.068;2024-02-28T05:08:00;97799.84;;;6.35;86.34
3812;BME280;1921;49.368;11.068;2024-02-28T05:10:25;97817.38;;;6.24;88.20
3812;BME280;1921;49.368;11.068;2024-02-28T05:12:51;97751.31;;;5.92;87.14
3812;BME280;1921;49.368;11.068;2024-02-28T05:15:17;97771.63;;;5.77;88.20
3812;BME280;1921;49.368;11.068;2024-02-28T05:17:43;97830.69;;;6.01;89.67
3812;BME280;1921;49.368;11.068;2024-02-28T05:20:09;97772.59;;;5.39;91.26
3812;BME280;1921;49.368;11.068;2024-02-28T05:22:35;97758.53;;;5.51;89.71
3812;BME280;1921;49.368;11.068;2024-02-28T05:25:01;97791.09;;;5.91;88.61
3812;BME280;1921;49.368;11.068;2024-02-28T05:27:28;97793.47;;;6.02;88.24
3812;BME280;1921;49.368;11.068;2024-02-28T05:29:55;97759.25;;;5.81;87.84
3812;BME280;1921;49.368;11.068;2024-02-28T05:32:23;97809.31;;;5.99;88.58
3812;BME280;1921;49.368;11.068;2024-02-28T05:34:48;97827.25;;;6.10;88.45
3812;BME280;1921;49.368;11.068;2024-02-28T05:37:16;97819.88;;;6.15;87.69
3812;BME280;1921;49.368;11.068;2024-02-28T05:39:43;97831.69;;;5.81;89.94
3812;BME280;1921;49.368;11.068;2024-02-28T05:42:08;97762.09;;;5.50;90.09
3812;BME280;1921;49.368;11.068;2024-02-28T05:44:34;97832.75;;;5.88;90.47
3812;BME280;1921;49.368;11.068;2024-02-28T05:47:00;97796.81;;;5.85;89.75
3812;BME280;1921;49.368;11.068;2024-02-28T05:49:26;97779.56;;;5.76;88.76
3812;BME280;1921;49.368;11.068;2024-02-28T05:51:51;97817.97;;;5.71;90.12
3812;BME280;1921;49.368;11.068;2024-02-28T05:54:19;97806.06;;;5.87;89.36
3812;BME280;1921;49.368;11.068;2024-02-28T05:56:45;97803.47;;;5.87;88.96
3812;BME280;1921;49.368;11.068;2024-02-28T05:59:10;97801.97;;;5.94;88.13
3812;BME280;1921;49.368;11.068;2024-02-28T06:01:37;97813.44;;;5.82;88.48
3812;BME280;1921;49.368;11.068;2024-02-28T06:04:05;97808.25;;;5.92;88.31
3812;BME280;1921;49.368;11.068;2024-02-28T06:06:31;97849.69;;;6.19;88.02
3812;BME280;1921;49.368;11.068;2024-02-28T06:08:57;97823.38;;;5.97;88.40
3812;BME280;1921;49.368;11.068;2024-02-28T06:11:22;97820.06;;;6.04;87.31
3812;BME280;1921;49.368;11.068;2024-02-28T06:13:50;97839.78;;;6.15;87.54
3812;BME280;1921;49.368;11.068;2024-02-28T06:16:16;97859.44;;;5.88;89.79
3812;BME280;1921;49.368;11.068;2024-02-28T06:18:43;97858.47;;;5.89;90.11
3812;BME280;1921;49.368;11.068;2024-02-28T06:21:09;97823.91;;;5.44;90.90
3812;BME280;1921;49.368;11.068;2024-02-28T06:23:35;97811.38;;;5.49;89.98
3812;BME280;1921;49.368;11.068;2024-02-28T06:26:00;97869.41;;;5.93;90.40
3812;BME280;1921;49.368;11.068;2024-02-28T06:28:26;97865.19;;;5.92;89.62
3812;BME280;1921;49.368;11.068;2024-02-28T06:30:52;97901.59;;;6.28;88.30
3812;BME280;1921;49.368;11.068;2024-02-28T06:33:18;97843.78;;;5.90;88.27
3812;BME280;1921;49.368;11.068;2024-02-28T06:35:44;97857.78;;;6.07;88.59
3812;BME280;1921;49.368;11.068;2024-02-28T06:38:10;97857.63;;;6.08;88.00
3812;BME280;1921;49.368;11.068;2024-02-28T06:40:35;97862.75;;;5.81;89.83
3812;BME280;1921;49.368;11.068;2024-02-28T06:43:01;97841.00;;;5.64;89.59
3812;BME280;1921;49.368;11.068;2024-02-28T06:45:27;97863.28;;;5.84;89.64
3812;BME280;1921;49.368;11.068;2024-02-28T06:47:53;97886.72;;;5.92;89.78
3812;BME280;1921;49.368;11.068;2024-02-28T06:50:18;97892.50;;;6.14;88.85
3812;BME280;1921;49.368;11.068;2024-02-28T06:52:44;97911.25;;;6.26;89.24
3812;BME280;1921;49.368;11.068;2024-02-28T06:55:10;97848.50;;;5.67;88.60
3812;BME280;1921;49.368;11.068;2024-02-28T06:57:37;97905.69;;;6.20;88.53
3812;BME280;1921;49.368;11.068;2024-02-28T07:00:09;97919.34;;;6.50;87.18
3812;BME280;1921;49.368;11.068;2024-02-28T07:02:35;97888.06;;;5.77;87.83
3812;BME280;1921;49.368;11.068;2024-02-28T07:05:02;97744.50;;;5.07;88.76
3812;BME280;1921;49.368;11.068;2024-02-28T07:07:30;97934.13;;;6.40;87.74
3812;BME280;1921;49.368;11.068;2024-02-28T07:09:57;97890.78;;;5.95;88.29
3812;BME280;1921;49.368;11.068;2024-02-28T07:12:23;97912.31;;;5.96;88.20
3812;BME280;1921;49.368;11.068;2024-02-28T07:14:50;97969.50;;;6.22;88.72
3812;BME280;1921;49.368;11.068;2024-02-28T07:17:16;97958.03;;;6.14;89.41
3812;BME280;1921;49.368;11.068;2024-02-28T07:19:41;97952.81;;;6.34;88.01
3812;BME280;1921;49.368;11.068;2024-02-28T07:22:07;97924.75;;;6.29;87.75
3812;BME280;1921;49.368;11.068;2024-02-28T07:24:33;97962.97;;;6.45;88.04
3812;BME280;1921;49.368;11.068;2024-02-28T07:26:59;97943.59;;;6.59;87.17
3812;BME280;1921;49.368;11.068;2024-02-28T07:29:24;97936.41;;;6.43;85.56
3812;BME280;1921;49.368;11.068;2024-02-28T07:31:50;97963.34;;;6.60;85.31
3812;BME280;1921;49.368;11.068;2024-02-28T07:34:16;97975.56;;;6.95;85.08
3812;BME280;1921;49.368;11.068;2024-02-28T07:36:43;97971.44;;;6.74;84.86
3812;BME280;1921;49.368;11.068;2024-02-28T07:39:09;97954.28;;;6.73;84.31
3812;BME280;1921;49.368;11.068;2024-02-28T07:41:41;97953.78;;;6.60;83.83
3812;BME280;1921;49.368;11.068;2024-02-28T07:44:07;97951.69;;;6.46;84.64
3812;BME280;1921;49.368;11.068;2024-02-28T07:46:34;97949.03;;;6.56;83.88
3812;BME280;1921;49.368;11.068;2024-02-28T07:49:00;97971.72;;;6.99;82.29
3812;BME280;1921;49.368;11.068;2024-02-28T07:51:27;98001.97;;;6.81;84.29
3812;BME280;1921;49.368;11.068;2024-02-28T07:53:53;97983.25;;;6.87;84.87
3812;BME280;1921;49.368;11.068;2024-02-28T07:56:20;97979.06;;;6.76;84.30
3812;BME280;1921;49.368;11.068;2024-02-28T07:58:46;97973.13;;;6.93;84.23
3812;BME280;1921;49.368;11.068;2024-02-28T08:01:12;97981.13;;;7.27;84.47
3812;BME280;1921;49.368;11.068;2024-02-28T08:03:38;97963.03;;;7.36;83.90
3812;BME280;1921;49.368;11.068;2024-02-28T08:06:04;97993.09;;;7.82;81.20
3812;BME280;1921;49.368;11.068;2024-02-28T08:08:30;98002.50;;;8.01;79.02
3812;BME280;1921;49.368;11.068;2024-02-28T08:10:56;97989.13;;;7.52;79.17
3812;BME280;1921;49.368;11.068;2024-02-28T08:13:21;98010.47;;;7.81;80.09
3812;BME280;1921;49.368;11.068;2024-02-28T08:15:47;97983.03;;;7.61;78.91
3812;BME280;1921;49.368;11.068;2024-02-28T08:18:13;97955.38;;;6.71;83.03
3812;BME280;1921;49.368;11.068;2024-02-28T08:20:39;97986.06;;;7.39;82.52
3812;BME280;1921;49.368;11.068;2024-02-28T08:23:05;97978.50;;;7.63;82.15
3812;BME280;1921;49.368;11.068;2024-02-28T08:25:31;97966.84;;;7.85;79.56
3812;BME280;1921;49.368;11.068;2024-02-28T08:27:57;97975.31;;;7.51;78.36
3812;BME280;1921;49.368;11.068;2024-02-28T08:30:23;98012.88;;;7.12;82.78
3812;BME280;1921;49.368;11.068;2024-02-28T08:32:49;97999.75;;;6.58;86.36
3812;BME280;1921;49.368;11.068;2024-02-28T08:35:16;98005.41;;;7.09;83.06
3812;BME280;1921;49.368;11.068;2024-02-28T08:37:42;98003.72;;;7.35;82.03
3812;BME280;1921;49.368;11.068;2024-02-28T08:40:08;98025.97;;;7.73;82.68
3812;BME280;1921;49.368;11.068;2024-02-28T08:42:34;97967.78;;;7.40;80.46
3812;BME280;1921;49.368;11.068;2024-02-28T08:45:00;97986.75;;;6.68;83.27
3812;BME280;1921;49.368;11.068;2024-02-28T08:47:26;97996.16;;;6.69;85.34
3812;BME280;1921;49.368;11.068;2024-02-28T08:49:55;98005.78;;;6.59;86.08
3812;BME280;1921;49.368;11.068;2024-02-28T08:52:21;97996.22;;;6.59;86.20
3812;BME280;1921;49.368;11.068;2024-02-28T08:54:48;98016.03;;;7.06;85.37
3812;BME280;1921;49.368;11.068;2024-02-28T08:57:14;97899.81;;;6.28;83.83
3812;BME280;1921;49.368;11.068;2024-02-28T08:59:40;98040.28;;;7.42;83.22
3812;BME280;1921;49.368;11.068;2024-02-28T09:02:07;98034.66;;;7.64;83.03
3812;BME280;1921;49.368;11.068;2024-02-28T09:04:33;98034.78;;;7.63;80.86
3812;BME280;1921;49.368;11.068;2024-02-28T09:06:59;98004.19;;;7.66;81.62
3812;BME280;1921;49.368;11.068;2024-02-28T09:09:24;98034.06;;;7.70;80.74
3812;BME280;1921;49.368;11.068;2024-02-28T09:11:50;98004.81;;;7.50;80.82
3812;BME280;1921;49.368;11.068;2024-02-28T09:14:16;98015.84;;;7.17;82.35
3812;BME280;1921;49.368;11.068;2024-02-28T09:16:42;97972.69;;;6.98;80.96
3812;BME280;1921;49.368;11.068;2024-02-28T09:19:07;98012.59;;;7.33;80.38
3812;BME280;1921;49.368;11.068;2024-02-28T09:21:33;98023.34;;;7.38;80.12
3812;BME280;1921;49.368;11.068;2024-02-28T09:23:59;98046.91;;;7.72;81.06
3812;BME280;1921;49.368;11.068;2024-02-28T09:26:25;98060.09;;;7.96;78.32
3812;BME280;1921;49.368;11.068;2024-02-28T09:28:52;97913.25;;;6.41;82.31
3812;BME280;1921;49.368;11.068;2024-02-28T09:31:20;98022.13;;;7.60;80.08
3812;BME280;1921;49.368;11.068;2024-02-28T09:33:45;98061.09;;;8.21;80.42
3812;BME280;1921;49.368;11.068;2024-02-28T09:36:12;97999.03;;;7.92;75.62
3812;BME280;1921;49.368;11.068;2024-02-28T09:38:38;98003.75;;;8.15;76.61
3812;BME280;1921;49.368;11.068;2024-02-28T09:41:04;98002.00;;;8.23;73.68
3812;BME280;1921;49.368;11.068;2024-02-28T09:43:40;98004.28;;;8.00;73.98
3812;BME280;1921;49.368;11.068;2024-02-28T09:46:08;97928.09;;;7.48;74.60
3812;BME280;1921;49.368;11.068;2024-02-28T09:48:39;98033.97;;;7.44;78.43
3812;BME280;1921;49.368;11.068;2024-02-28T09:51:06;98064.31;;;7.97;76.76
3812;BME280;1921;49.368;11.068;2024-02-28T09:53:33;98034.19;;;7.33;78.60
3812;BME280;1921;49.368;11.068;2024-02-28T09:55:59;98018.94;;;7.20;79.09
3812;BME280;1921;49.368;11.068;2024-02-28T09:58:25;98012.00;;;6.93;81.18
3812;BME280;1921;49.368;11.068;2024-02-28T10:00:52;98046.16;;;7.16;80.27
3812;BME280;1921;49.368;11.068;2024-02-28T10:03:22;98031.84;;;7.12;80.83
3812;BME280;1921;49.368;11.068;2024-02-28T10:05:50;98033.16;;;7.79;79.87
3812;BME280;1921;49.368;11.068;2024-02-28T10:08:17;98075.50;;;8.33;77.38
3812;BME280;1921;49.368;11.068;2024-02-28T10:10:50;98004.97;;;8.02;74.42
3812;BME280;1921;49.368;11.068;2024-02-28T10:13:20;98029.81;;;7.87;75.57
3812;BME280;1921;49.368;11.068;2024-02-28T10:15:49;97966.41;;;8.16;74.30
3812;BME280;1921;49.368;11.068;2024-02-28T10:18:15;98067.84;;;9.18;72.39
3812;BME280;1921;49.368;11.068;2024-02-28T10:20:41;97999.50;;;9.00;69.95
3812;BME280;1921;49.368;11.068;2024-02-28T10:23:07;98061.44;;;9.47;67.68
3812;BME280;1921;49.368;11.068;2024-02-28T10:25:45;98069.25;;;9.47;68.18
3812;BME280;1921;49.368;11.068;2024-02-28T10:28:12;98059.09;;;8.33;70.98
3812;BME280;1921;49.368;11.068;2024-02-28T10:30:43;98036.16;;;8.28;71.09
3812;BME280;1921;49.368;11.068;2024-02-28T10:33:16;97982.91;;;8.32;70.35
3812;BME280;1921;49.368;11.068;2024-02-28T10:35:43;98069.78;;;8.48;69.69
3812;BME280;1921;49.368;11.068;2024-02-28T10:38:12;98041.22;;;8.56;69.52
3812;BME280;1921;49.368;11.068;2024-02-28T10:40:40;98043.13;;;8.80;69.64
3812;BME280;1921;49.368;11.068;2024-02-28T10:43:08;98082.97;;;9.14;68.63
3812;BME280;1921;49.368;11.068;2024-02-28T10:45:37;98045.22;;;8.24;71.80
3812;BME280;1921;49.368;11.068;2024-02-28T10:48:05;98042.50;;;8.78;72.00
3812;BME280;1921;49.368;11.068;2024-02-28T10:50:31;98074.41;;;9.30;69.54
3812;BME280;1921;49.368;11.068;2024-02-28T10:53:03;98093.44;;;9.89;68.66
3812;BME280;1921;49.368;11.068;2024-02-28T10:55:40;98093.13;;;10.01;66.85
3812;BME280;1921;49.368;11.068;2024-02-28T10:58:10;98029.22;;;8.63;68.50
3812;BME280;1921;49.368;11.068;2024-02-28T11:00:38;98006.31;;;8.32;69.01
3812;BME280;1921;49.368;11.068;2024-02-28T11:03:04;98078.16;;;9.36;67.78
3812;BME280;1921;49.368;11.068;2024-02-28T11:05:42;98067.81;;;9.68;68.03
3812;BME280;1921;49.368;11.068;2024-02-28T11:08:24;98104.25;;;9.10;68.60
3812;BME280;1921;49.368;11.068;2024-02-28T11:11:03;98118.50;;;6.72;80.77
3812;BME280;1921;49.368;11.068;2024-02-28T11:13:30;98044.69;;;6.30;82.12
3812;BME280;1921;49.368;11.068;2024-02-28T11:16:10;98061.19;;;6.85;80.47
3812;BME280;1921;49.368;11.068;2024-02-28T11:18:36;98107.66;;;6.96;81.07
3812;BME280;1921;49.368;11.068;2024-02-28T11:21:16;98071.66;;;6.37;84.69
3812;BME280;1921;49.368;11.068;2024-02-28T11:23:46;98080.09;;;6.95;83.15
3812;BME280;1921;49.368;11.068;2024-02-28T11:26:13;98119.97;;;7.77;77.82
3812;BME280;1921;49.368;11.068;2024-02-28T11:28:39;98086.94;;;8.23;75.97
3812;BME280;1921;49.368;11.068;2024-02-28T11:31:05;98084.63;;;8.38;73.96
3812;BME280;1921;49.368;11.068;2024-02-28T11:33:31;98056.97;;;8.54;71.55
3812;BME280;1921;49.368;11.068;2024-02-28T11:35:59;98092.06;;;9.10;71.57
3812;BME280;1921;49.368;11.068;2024-02-28T11:38:25;98083.09;;;9.05;70.77
3812;BME280;1921;49.368;11.068;2024-02-28T11:40:51;98045.38;;;9.01;70.18
3812;BME280;1921;49.368;11.068;2024-02-28T11:43:17;98068.75;;;9.43;69.30
3812;BME280;1921;49.368;11.068;2024-02-28T11:45:44;98124.22;;;9.94;65.94
3812;BME280;1921;49.368;11.068;2024-02-28T11:48:15;98086.44;;;9.90;66.26
3812;BME280;1921;49.368;11.068;2024-02-28T11:50:42;98076.34;;;9.28;66.49
3812;BME280;1921;49.368;11.068;2024-02-28T11:53:08;98113.31;;;9.90;66.88
3812;BME280;1921;49.368;11.068;2024-02-28T11:55:34;98088.41;;;9.88;66.31
3812;BME280;1921;49.368;11.068;2024-02-28T11:58:01;98093.44;;;10.06;65.19
3812;BME280;1921;49.368;11.068;2024-02-28T12:00:27;98095.78;;;10.33;65.60
3812;BME280;1921;49.368;11.068;2024-02-28T12:02:52;98075.72;;;10.42;62.97
3812;BME280;1921;49.368;11.068;2024-02-28T12:05:29;98051.63;;;10.23;62.48
3812;BME280;1921;49.368;11.068;2024-02-28T12:07:55;98081.91;;;10.49;62.77
3812;BME280;1921;49.368;11.068;2024-02-28T12:10:22;98109.78;;;10.32;61.32
3812;BME280;1921;49.368;11.068;2024-02-28T12:12:48;98060.84;;;9.93;63.70
3812;BME280;1921;49.368;11.068;2024-02-28T12:15:15;98094.59;;;10.19;63.62
3812;BME280;1921;49.368;11.068;2024-02-28T12:17:42;98076.34;;;10.11;63.07
3812;BME280;1921;49.368;11.068;2024-02-28T12:20:09;97982.72;;;9.53;64.07
3812;BME280;1921;49.368;11.068;2024-02-28T12:22:37;98086.91;;;9.77;65.93
3812;BME280;1921;49.368;11.068;2024-02-28T12:25:03;98039.81;;;9.46;65.17
3812;BME280;1921;49.368;11.068;2024-02-28T12:27:30;98015.69;;;9.20;65.95
3812;BME280;1921;49.368;11.068;2024-02-28T12:29:59;98069.13;;;9.64;65.25
3812;BME280;1921;49.368;11.068;2024-02-28T12:32:24;98067.44;;;8.97;66.39
3812;BME280;1921;49.368;11.068;2024-02-28T12:34:50;98088.28;;;8.27;70.48
3812;BME280;1921;49.368;11.068;2024-02-28T12:37:17;98103.34;;;7.88;74.39
3812;BME280;1921;49.368;11.068;2024-02-28T12:39:45;98094.78;;;8.13;75.23
3812;BME280;1921;49.368;11.068;2024-02-28T12:42:13;98123.91;;;9.04;73.79
3812;BME280;1921;49.368;11.068;2024-02-28T12:44:38;98110.91;;;9.12;69.21
3812;BME280;1921;49.368;11.068;2024-02-28T12:47:06;98070.25;;;9.03;69.13
3812;BME280;1921;49.368;11.068;2024-02-28T12:49:32;98085.56;;;9.57;68.81
3812;BME280;1921;49.368;11.068;2024-02-28T12:51:57;98116.75;;;10.15;66.21
3812;BME280;1921;49.368;11.068;2024-02-28T12:54:23;98120.22;;;10.32;66.52
3812;BME280;1921;49.368;11.068;2024-02-28T12:56:49;98108.81;;;10.33;63.85
3812;BME280;1921;49.368;11.068;2024-02-28T12:59:15;98056.63;;;9.84;63.68
3812;BME280;1921;49.368;11.068;2024-02-28T13:01:41;98108.22;;;9.73;67.34
3812;BME280;1921;49.368;11.068;2024-02-28T13:04:07;98089.34;;;9.87;67.08
3812;BME280;1921;49.368;11.068;2024-02-28T13:06:33;98115.13;;;10.14;66.34
3812;BME280;1921;49.368;11.068;2024-02-28T13:09:00;98072.59;;;9.89;64.86
3812;BME280;1921;49.368;11.068;2024-02-28T13:11:25;98070.63;;;9.91;65.76
3812;BME280;1921;49.368;11.068;2024-02-28T13:13:52;98099.81;;;10.19;65.27
3812;BME280;1921;49.368;11.068;2024-02-28T13:16:19;98098.84;;;10.37;64.03